Time,TemperatureF,DewpointF,PressureIn,WindDirection,WindDirectionDegrees,WindSpeedMPH,WindSpeedGustMPH,Humidity,HourlyPrecipIn,Conditions,Clouds,dailyrainin,SoftwareType,DateUTC
2013-02-04 00:03:00,40.9,39.3,30.17,NNW,343,0.0,0.0,94,0.00,CLR,,0.00,WeatherDisplay:10.37,2013-02-04 08:03:00,
2013-02-04 00:08:00,40.7,39.1,30.16,NNW,343,0.0,0.0,94,0.00,CLR,,0.00,WeatherDisplay:10.37,2013-02-04 08:08:00,
2013-02-04 00:13:00,41.1,39.8,30.17,NNW,342,0.0,0.0,95,0.00,CLR,,0.00,WeatherDisplay:10.37,2013-02-04 08:13:00,
2013-02-04 00:18:00,41.4,40.1,30.17,NNW,343,0.0,0.0,95,0.00,CLR,,0.00,WeatherDisplay:10.37,2013-02-04 08:18:00,
2013-02-04 00:23:00,41.3,40.0,30.17,NNW,342,0.0,0.0,95,0.00,CLR,,0.00,WeatherDisplay:10.37,2013-02-04 08:23:00,
2013-02-04 00:28:00,40.8,39.5,30.17,ESE,102,0.0,0.0,95,0.00,CLR,,0.00,WeatherDisplay:10.37,2013-02-04 08:28:00,
2013-02-04 00:33:00,39.8,38.2,30.17,ESE,102,0.0,0.0,94,0.00,CLR,,0.00,WeatherDisplay:10.37,2013-02-04 08:33:00,
2013-02-04 00:38:00,39.7,38.1,30.17,ESE,102,0.0,0.0,94,0.00,CLR,,0.00,WeatherDisplay:10.37,2013-02-04 08:38:00,
2013-02-04 00:43:00,39.7,38.1,30.17,ESE,102,0.0,0.0,94,0.00,CLR,,0.00,WeatherDisplay:10.37,2013-02-04 08:43:00,
2013-02-04 00:48:00,39.8,38.5,30.17,ESE,102,0.0,0.0,95,0.00,CLR,,0.00,WeatherDisplay:10.37,2013-02-04 08:48:00,
2013-02-04 00:53:00,39.8,38.5,30.16,ESE,102,0.0,0.0,95,0.00,CLR,,0.00,WeatherDisplay:10.37,2013-02-04 08:53:00,
2013-02-04 00:58:00,40.0,38.7,30.17,ESE,102,0.0,0.0,95,0.00,CLR,,0.00,WeatherDisplay:10.37,2013-02-04 08:58:00,
2013-02-04 01:03:00,40.1,38.8,30.17,ESE,102,0.0,0.0,95,0.00,CLR,,0.00,WeatherDisplay:10.37,2013-02-04 09:03:00,
2013-02-04 01:08:00,40.3,39.0,30.16,ESE,102,0.0,0.0,95,0.00,CLR,,0.00,WeatherDisplay:10.37,2013-02-04 09:08:00,
2013-02-04 01:13:00,39.6,38.3,30.16,ESE,102,0.0,0.0,95,0.00,CLR,,0.00,WeatherDisplay:10.37,2013-02-04 09:13:00,
2013-02-04 01:18:00,38.6,37.0,30.17,East,101,0.0,0.0,94,0.00,CLR,,0.00,WeatherDisplay:10.37,2013-02-04 09:18:00,
2013-02-04 01:23:00,38.4,36.8,30.17,ESE,102,0.0,0.0,94,0.00,CLR,,0.00,WeatherDisplay:10.37,2013-02-04 09:23:00,
2013-02-04 01:28:00,38.4,36.8,30.17,NE,39,1.1,1.1,94,0.00,CLR,,0.00,WeatherDisplay:10.37,2013-02-04 09:28:00,
2013-02-04 01:33:00,38.3,37.0,30.17,NNW,342,1.1,1.1,95,0.00,CLR,,0.00,WeatherDisplay:10.37,2013-02-04 09:33:00,
2013-02-04 01:38:00,38.8,37.5,30.17,NNW,338,0.0,0.0,95,0.00,CLR,,0.00,WeatherDisplay:10.37,2013-02-04 09:38:00,
2013-02-04 01:43:00,39.0,37.7,30.17,NNW,339,0.0,0.0,95,0.00,CLR,,0.00,WeatherDisplay:10.37,2013-02-04 09:43:00,
2013-02-04 01:48:00,38.9,37.6,30.17,NNW,338,1.0,1.0,95,0.00,CLR,,0.00,WeatherDisplay:10.37,2013-02-04 09:48:00,
2013-02-04 01:53:00,38.4,37.1,30.17,NNW,338,1.1,1.1,95,0.00,CLR,,0.00,WeatherDisplay:10.37,2013-02-04 09:53:00,
2013-02-04 01:58:00,38.3,37.0,30.17,NNW,339,1.1,1.1,95,0.00,CLR,,0.00,WeatherDisplay:10.37,2013-02-04 09:58:00,
2013-02-04 02:03:00,38.2,36.9,30.17,NNW,338,0.0,0.0,95,0.00,CLR,,0.00,WeatherDisplay:10.37,2013-02-04 10:03:00,
2013-02-04 02:08:00,38.0,36.7,30.17,NNW,338,0.0,0.0,95,0.00,CLR,,0.00,WeatherDisplay:10.37,2013-02-04 10:08:00,
2013-02-04 02:13:00,37.6,36.3,30.17,NNW,342,0.0,0.0,95,0.00,CLR,,0.00,WeatherDisplay:10.37,2013-02-04 10:13:00,
2013-02-04 02:18:00,37.5,36.2,30.17,NNW,342,0.0,0.0,95,0.00,CLR,,0.00,WeatherDisplay:10.37,2013-02-04 10:18:00,
2013-02-04 02:23:00,37.5,36.2,30.17,NNW,342,0.0,0.0,95,0.00,CLR,,0.00,WeatherDisplay:10.37,2013-02-04 10:23:00,
2013-02-04 02:28:00,37.8,36.5,30.17,NNW,342,0.0,0.0,95,0.00,CLR,,0.00,WeatherDisplay:10.37,2013-02-04 10:28:00,
2013-02-04 02:33:00,38.1,36.8,30.17,NNW,342,0.0,0.0,95,0.00,CLR,,0.00,WeatherDisplay:10.37,2013-02-04 10:33:00,
2013-02-04 02:38:00,38.2,36.9,30.17,NNW,342,0.0,0.0,95,0.00,CLR,,0.00,WeatherDisplay:10.37,2013-02-04 10:38:00,
2013-02-04 02:43:00,38.4,37.1,30.17,NNW,342,0.0,0.0,95,0.00,CLR,,0.00,WeatherDisplay:10.37,2013-02-04 10:43:00,
2013-02-04 02:48:00,38.8,37.5,30.17,NNW,342,0.0,0.0,95,0.00,CLR,,0.00,WeatherDisplay:10.37,2013-02-04 10:48:00,
2013-02-04 02:53:00,38.9,37.6,30.17,NNW,338,0.0,0.0,95,0.00,CLR,,0.00,WeatherDisplay:10.37,2013-02-04 10:53:00,
2013-02-04 02:58:00,39.1,37.8,30.17,NNW,339,0.0,0.0,95,0.00,CLR,,0.00,WeatherDisplay:10.37,2013-02-04 10:58:00,
2013-02-04 03:03:00,39.2,37.9,30.16,NNW,338,0.0,0.0,95,0.00,CLR,,0.00,WeatherDisplay:10.37,2013-02-04 11:03:00,
2013-02-04 03:08:00,39.3,38.0,30.17,NNE,23,1.1,1.1,95,0.00,CLR,,0.00,WeatherDisplay:10.37,2013-02-04 11:08:00,
2013-02-04 03:13:00,39.2,37.9,30.17,NNE,26,1.1,1.1,95,0.00,CLR,,0.00,WeatherDisplay:10.37,2013-02-04 11:13:00,
2013-02-04 03:18:00,39.0,37.7,30.16,NNE,25,0.0,0.0,95,0.00,CLR,,0.00,WeatherDisplay:10.37,2013-02-04 11:18:00,
2013-02-04 03:23:00,39.0,37.7,30.16,NNE,26,1.1,1.1,95,0.00,CLR,,0.00,WeatherDisplay:10.37,2013-02-04 11:23:00,
2013-02-04 03:28:00,38.9,37.6,30.16,NNE,26,1.1,1.1,95,0.00,CLR,,0.00,WeatherDisplay:10.37,2013-02-04 11:28:00,
2013-02-04 03:33:00,38.7,37.4,30.16,North,349,1.1,1.1,95,0.00,CLR,,0.00,WeatherDisplay:10.37,2013-02-04 11:33:00,
2013-02-04 03:38:00,38.5,37.2,30.16,North,350,0.0,0.0,95,0.00,CLR,,0.00,WeatherDisplay:10.37,2013-02-04 11:38:00,
2013-02-04 03:43:00,38.4,37.1,30.16,North,349,0.0,0.0,95,0.00,CLR,,0.00,WeatherDisplay:10.37,2013-02-04 11:43:00,
2013-02-04 03:48:00,38.3,37.0,30.15,North,349,1.1,1.1,95,0.00,CLR,,0.00,WeatherDisplay:10.37,2013-02-04 11:48:00,
2013-02-04 03:53:00,38.1,36.8,30.15,North,349,1.1,1.1,95,0.00,CLR,,0.00,WeatherDisplay:10.37,2013-02-04 11:53:00,
2013-02-04 03:58:00,37.9,36.6,30.15,North,360,2.3,2.3,95,0.00,CLR,,0.00,WeatherDisplay:10.37,2013-02-04 11:58:00,
2013-02-04 04:03:00,37.7,36.4,30.15,North,354,2.3,2.3,95,0.00,CLR,,0.00,WeatherDisplay:10.37,2013-02-04 12:03:00,
2013-02-04 04:08:00,37.4,36.1,30.16,NNE,25,2.3,2.3,95,0.00,CLR,,0.00,WeatherDisplay:10.37,2013-02-04 12:08:00,
2013-02-04 04:13:00,37.2,35.9,30.16,North,8,1.1,1.1,95,0.00,CLR,,0.00,WeatherDisplay:10.37,2013-02-04 12:13:00,
2013-02-04 04:18:00,37.2,35.9,30.16,North,351,1.1,1.1,95,0.00,CLR,,0.00,WeatherDisplay:10.37,2013-02-04 12:18:00,
2013-02-04 04:23:00,37.3,36.0,30.16,North,352,1.1,1.1,95,0.00,CLR,,0.00,WeatherDisplay:10.37,2013-02-04 12:23:00,
2013-02-04 04:28:00,37.3,36.0,30.16,NNE,22,1.1,1.2,95,0.00,CLR,,0.00,WeatherDisplay:10.37,2013-02-04 12:28:00,
2013-02-04 04:33:00,37.3,36.0,30.16,North,11,2.3,2.3,95,0.00,CLR,,0.00,WeatherDisplay:10.37,2013-02-04 12:33:00,
2013-02-04 04:38:00,37.3,36.0,30.15,North,4,2.3,2.3,95,0.00,CLR,,0.00,WeatherDisplay:10.37,2013-02-04 12:38:00,
2013-02-04 04:43:00,37.2,35.9,30.15,North,4,1.1,1.1,95,0.00,CLR,,0.00,WeatherDisplay:10.37,2013-02-04 12:43:00,
2013-02-04 04:48:00,37.2,35.9,30.16,NNW,345,1.1,1.1,95,0.00,CLR,,0.00,WeatherDisplay:10.37,2013-02-04 12:48:00,
2013-02-04 04:53:00,37.3,36.0,30.16,NNW,345,1.1,1.1,95,0.00,CLR,,0.00,WeatherDisplay:10.37,2013-02-04 12:53:00,
2013-02-04 04:58:00,37.3,36.0,30.16,NNW,345,1.1,1.1,95,0.00,CLR,,0.00,WeatherDisplay:10.37,2013-02-04 12:58:00,
2013-02-04 05:03:00,37.2,35.9,30.16,NNW,345,1.0,1.0,95,0.00,CLR,,0.00,WeatherDisplay:10.37,2013-02-04 13:03:00,
2013-02-04 05:08:00,37.2,35.9,30.16,NNW,345,0.0,0.0,95,0.00,CLR,,0.00,WeatherDisplay:10.37,2013-02-04 13:08:00,
2013-02-04 05:13:00,37.2,35.9,30.16,NNW,345,0.0,0.0,95,0.00,CLR,,0.00,WeatherDisplay:10.37,2013-02-04 13:13:00,
2013-02-04 05:18:00,37.2,35.9,30.16,NNW,345,0.0,0.0,95,0.00,CLR,,0.00,WeatherDisplay:10.37,2013-02-04 13:18:00,
2013-02-04 05:23:00,37.3,36.0,30.16,NNW,345,1.1,1.1,95,0.00,CLR,,0.00,WeatherDisplay:10.37,2013-02-04 13:23:00,
2013-02-04 05:28:00,37.3,36.0,30.16,NNW,345,0.0,0.0,95,0.00,CLR,,0.00,WeatherDisplay:10.37,2013-02-04 13:28:00,
2013-02-04 05:33:00,37.3,36.0,30.16,NNW,345,0.0,0.0,95,0.00,CLR,,0.00,WeatherDisplay:10.37,2013-02-04 13:33:00,
2013-02-04 05:38:00,37.3,36.0,30.16,NNW,345,0.0,0.0,95,0.00,CLR,,0.00,WeatherDisplay:10.37,2013-02-04 13:38:00,
2013-02-04 05:43:00,37.4,36.1,30.16,NNW,345,0.0,0.0,95,0.00,CLR,,0.00,WeatherDisplay:10.37,2013-02-04 13:43:00,
2013-02-04 05:48:00,37.5,36.2,30.16,North,354,0.0,0.0,95,0.00,CLR,,0.00,WeatherDisplay:10.37,2013-02-04 13:48:00,
2013-02-04 05:53:00,37.5,36.2,30.16,NE,44,1.1,1.1,95,0.00,CLR,,0.00,WeatherDisplay:10.37,2013-02-04 13:53:00,
2013-02-04 05:58:00,37.6,36.3,30.16,NE,50,1.1,1.1,95,0.00,CLR,,0.00,WeatherDisplay:10.37,2013-02-04 13:58:00,
2013-02-04 06:03:00,37.5,36.2,30.16,ENE,58,2.3,2.3,95,0.00,CLR,,0.00,WeatherDisplay:10.37,2013-02-04 14:03:00,
2013-02-04 06:08:00,37.4,36.1,30.16,ENE,69,1.1,0.0,95,0.00,CLR,,0.00,WeatherDisplay:10.37,2013-02-04 14:08:00,
2013-02-04 06:13:00,37.4,36.1,30.16,ENE,60,2.3,2.3,95,0.00,CLR,,0.00,WeatherDisplay:10.37,2013-02-04 14:13:00,
2013-02-04 06:18:00,37.3,36.0,30.16,NNE,23,2.3,2.3,95,0.00,CLR,,0.00,WeatherDisplay:10.37,2013-02-04 14:18:00,
2013-02-04 06:23:00,37.3,36.0,30.16,North,6,2.3,2.3,95,0.00,CLR,,0.00,WeatherDisplay:10.37,2013-02-04 14:23:00,
2013-02-04 06:28:00,37.3,36.0,30.16,North,351,2.3,2.3,95,0.00,CLR,,0.00,WeatherDisplay:10.37,2013-02-04 14:28:00,
2013-02-04 06:33:00,37.4,36.1,30.16,North,349,0.0,0.0,95,0.00,CLR,,0.00,WeatherDisplay:10.37,2013-02-04 14:33:00,
2013-02-04 06:38:00,37.5,36.2,30.16,North,356,1.1,1.1,95,0.00,CLR,,0.00,WeatherDisplay:10.37,2013-02-04 14:38:00,
2013-02-04 06:43:00,37.5,36.2,30.16,North,11,0.0,0.0,95,0.00,CLR,,0.00,WeatherDisplay:10.37,2013-02-04 14:43:00,
2013-02-04 06:48:00,37.5,36.2,30.16,NE,34,1.1,1.1,95,0.00,CLR,,0.00,WeatherDisplay:10.37,2013-02-04 14:48:00,
2013-02-04 06:53:00,37.5,36.2,30.17,NE,34,0.0,0.0,95,0.00,CLR,,0.00,WeatherDisplay:10.37,2013-02-04 14:53:00,
2013-02-04 06:58:00,37.6,36.3,30.17,NE,34,0.0,0.0,95,0.00,CLR,,0.00,WeatherDisplay:10.37,2013-02-04 14:58:00,
2013-02-04 07:03:00,37.6,36.3,30.17,NE,40,1.1,1.1,95,0.00,CLR,,0.00,WeatherDisplay:10.37,2013-02-04 15:03:00,
2013-02-04 07:08:00,37.6,36.3,30.17,NE,40,0.0,0.0,95,0.00,CLR,,0.00,WeatherDisplay:10.37,2013-02-04 15:08:00,
2013-02-04 07:13:00,37.6,36.3,30.17,ENE,60,2.3,2.3,95,0.00,CLR,,0.00,WeatherDisplay:10.37,2013-02-04 15:13:00,
2013-02-04 07:18:00,37.6,36.3,30.17,ENE,63,1.1,0.0,95,0.00,CLR,,0.00,WeatherDisplay:10.37,2013-02-04 15:18:00,
2013-02-04 07:23:00,37.7,36.4,30.17,ENE,63,1.1,1.1,95,0.00,CLR,,0.00,WeatherDisplay:10.37,2013-02-04 15:23:00,
2013-02-04 07:28:00,37.8,36.5,30.17,ENE,63,0.0,0.0,95,0.00,CLR,,0.00,WeatherDisplay:10.37,2013-02-04 15:28:00,
2013-02-04 07:33:00,37.9,36.6,30.17,ENE,63,0.0,0.0,95,0.00,CLR,,0.00,WeatherDisplay:10.37,2013-02-04 15:33:00,
2013-02-04 07:38:00,38.0,36.7,30.18,ENE,63,0.0,0.0,95,0.00,CLR,,0.00,WeatherDisplay:10.37,2013-02-04 15:38:00,
2013-02-04 07:43:00,38.2,36.9,30.18,ENE,63,0.0,0.0,95,0.00,CLR,,0.00,WeatherDisplay:10.37,2013-02-04 15:43:00,
2013-02-04 07:48:00,38.2,36.9,30.18,NE,56,0.0,0.0,95,0.00,CLR,,0.00,WeatherDisplay:10.37,2013-02-04 15:48:00,
2013-02-04 07:53:00,38.3,37.0,30.18,NE,39,2.3,2.3,95,0.00,CLR,,0.00,WeatherDisplay:10.37,2013-02-04 15:53:00,
2013-02-04 07:58:00,38.3,37.0,30.18,NE,39,2.3,2.3,95,0.00,CLR,,0.00,WeatherDisplay:10.37,2013-02-04 15:58:00,
2013-02-04 08:03:00,38.2,36.9,30.18,NE,47,2.3,2.3,95,0.00,CLR,,0.00,WeatherDisplay:10.37,2013-02-04 16:03:00,
2013-02-04 08:08:00,38.2,36.9,30.18,NE,47,1.1,1.1,95,0.00,CLR,,0.00,WeatherDisplay:10.37,2013-02-04 16:08:00,
2013-02-04 08:13:00,38.4,37.1,30.19,NE,47,1.1,1.1,95,0.00,CLR,,0.00,WeatherDisplay:10.37,2013-02-04 16:13:00,
2013-02-04 08:18:00,38.6,37.3,30.18,NE,47,1.1,1.1,95,0.00,CLR,,0.00,WeatherDisplay:10.37,2013-02-04 16:18:00,
2013-02-04 08:23:00,38.8,37.5,30.18,NE,47,1.1,0.0,95,0.00,CLR,,0.00,WeatherDisplay:10.37,2013-02-04 16:23:00,
2013-02-04 08:28:00,39.1,37.8,30.18,NE,47,0.0,0.1,95,0.00,CLR,,0.00,WeatherDisplay:10.37,2013-02-04 16:28:00,
2013-02-04 08:33:00,39.5,38.2,30.19,NE,47,0.0,0.0,95,0.00,CLR,,0.00,WeatherDisplay:10.37,2013-02-04 16:33:00,
2013-02-04 08:38:00,39.7,38.4,30.19,NE,47,1.1,1.1,95,0.00,CLR,,0.00,WeatherDisplay:10.37,2013-02-04 16:38:00,
2013-02-04 08:43:00,40.0,39.0,30.19,NE,47,0.0,0.0,96,0.00,CLR,,0.00,WeatherDisplay:10.37,2013-02-04 16:43:00,
2013-02-04 08:48:00,40.4,39.4,30.19,NE,47,0.0,0.0,96,0.00,CLR,,0.00,WeatherDisplay:10.37,2013-02-04 16:48:00,
2013-02-04 08:53:00,40.9,39.8,30.19,NE,47,0.0,0.0,96,0.00,CLR,,0.00,WeatherDisplay:10.37,2013-02-04 16:53:00,
2013-02-04 08:58:00,41.4,40.1,30.19,NE,47,0.0,0.0,95,0.00,CLR,,0.00,WeatherDisplay:10.37,2013-02-04 16:58:00,
2013-02-04 09:03:00,41.7,40.6,30.19,NE,47,0.0,0.0,96,0.00,CLR,,0.00,WeatherDisplay:10.37,2013-02-04 17:03:00,
2013-02-04 09:08:00,42.1,41.0,30.19,NE,47,0.0,0.0,96,0.00,CLR,,0.00,WeatherDisplay:10.37,2013-02-04 17:08:00,
2013-02-04 09:13:00,42.4,41.3,30.19,NE,47,0.0,0.0,96,0.00,CLR,,0.00,WeatherDisplay:10.37,2013-02-04 17:13:00,
2013-02-04 09:18:00,42.5,41.4,30.19,NE,47,1.1,1.1,96,0.00,CLR,,0.00,WeatherDisplay:10.37,2013-02-04 17:18:00,
2013-02-04 09:23:00,42.6,41.5,30.19,NE,47,1.1,0.0,96,0.00,CLR,,0.00,WeatherDisplay:10.37,2013-02-04 17:23:00,
2013-02-04 09:28:00,42.7,41.4,30.19,ENE,65,1.1,1.1,95,0.00,CLR,,0.00,WeatherDisplay:10.37,2013-02-04 17:28:00,
2013-02-04 09:33:00,43.0,41.9,30.19,ENE,65,1.1,1.1,96,0.00,CLR,,0.00,WeatherDisplay:10.37,2013-02-04 17:33:00,
2013-02-04 09:38:00,43.5,42.2,30.19,ENE,65,0.0,0.0,95,0.00,CLR,,0.00,WeatherDisplay:10.37,2013-02-04 17:38:00,
2013-02-04 09:43:00,43.9,42.6,30.19,SSE,156,3.5,3.5,95,0.00,CLR,,0.00,WeatherDisplay:10.37,2013-02-04 17:43:00,
2013-02-04 09:48:00,44.2,42.9,30.19,South,170,3.5,3.5,95,0.00,CLR,,0.00,WeatherDisplay:10.37,2013-02-04 17:48:00,
2013-02-04 09:53:00,44.0,42.7,30.19,SSE,149,3.5,3.5,95,0.00,CLR,,0.00,WeatherDisplay:10.37,2013-02-04 17:53:00,
2013-02-04 09:58:00,44.1,42.8,30.19,SSE,165,4.0,4.0,95,0.00,CLR,,0.00,WeatherDisplay:10.37,2013-02-04 17:58:00,
2013-02-04 10:03:00,44.1,42.8,30.19,SSE,163,3.5,3.5,95,0.00,CLR,,0.00,WeatherDisplay:10.37,2013-02-04 18:03:00,
2013-02-04 10:08:00,44.3,43.0,30.19,SE,137,1.1,1.1,95,0.00,CLR,,0.00,WeatherDisplay:10.37,2013-02-04 18:08:00,
2013-02-04 10:13:00,44.4,43.1,30.19,SE,142,3.5,3.5,95,0.00,CLR,,0.00,WeatherDisplay:10.37,2013-02-04 18:13:00,
2013-02-04 10:18:00,44.7,43.4,30.19,SE,124,1.1,1.1,95,0.00,CLR,,0.00,WeatherDisplay:10.37,2013-02-04 18:18:00,
2013-02-04 10:23:00,44.7,43.4,30.19,SSE,158,1.0,1.0,95,0.00,CLR,,0.00,WeatherDisplay:10.37,2013-02-04 18:23:00,
2013-02-04 10:28:00,44.8,43.5,30.19,SE,146,0.0,0.0,95,0.00,CLR,,0.00,WeatherDisplay:10.37,2013-02-04 18:28:00,
2013-02-04 10:33:00,45.3,44.0,30.19,SSW,194,2.0,2.0,95,0.00,CLR,,0.00,WeatherDisplay:10.37,2013-02-04 18:33:00,
2013-02-04 10:38:00,45.6,44.3,30.19,South,189,1.1,1.1,95,0.00,CLR,,0.00,WeatherDisplay:10.37,2013-02-04 18:38:00,
2013-02-04 10:43:00,45.6,44.3,30.19,SE,139,2.3,2.3,95,0.00,CLR,,0.00,WeatherDisplay:10.37,2013-02-04 18:43:00,
2013-02-04 10:48:00,45.4,44.1,30.19,ESE,117,2.0,2.0,95,0.00,CLR,,0.00,WeatherDisplay:10.37,2013-02-04 18:48:00,
2013-02-04 10:53:00,45.3,44.0,30.19,SSE,163,3.0,3.0,95,0.00,CLR,,0.00,WeatherDisplay:10.37,2013-02-04 18:53:00,
2013-02-04 10:58:00,45.4,44.1,30.19,ESE,119,3.0,3.0,95,0.00,CLR,,0.00,WeatherDisplay:10.37,2013-02-04 18:58:00,
2013-02-04 11:03:00,45.6,44.3,30.19,SE,136,3.5,3.5,95,0.00,CLR,,0.00,WeatherDisplay:10.37,2013-02-04 19:03:00,
2013-02-04 11:08:00,45.6,44.3,30.18,SE,133,2.3,2.3,95,0.00,CLR,,0.00,WeatherDisplay:10.37,2013-02-04 19:08:00,
2013-02-04 11:13:00,45.8,44.4,30.18,WSW,256,4.6,4.6,95,0.00,CLR,,0.00,WeatherDisplay:10.37,2013-02-04 19:13:00,
2013-02-04 11:18:00,45.8,44.4,30.18,SSE,158,4.6,4.6,95,0.00,CLR,,0.00,WeatherDisplay:10.37,2013-02-04 19:18:00,
2013-02-04 11:23:00,45.8,44.4,30.18,SSE,152,4.6,4.6,95,0.00,CLR,,0.00,WeatherDisplay:10.37,2013-02-04 19:23:00,
2013-02-04 11:28:00,45.7,44.4,30.18,SE,146,6.9,6.9,95,0.00,CLR,,0.00,WeatherDisplay:10.37,2013-02-04 19:28:00,
2013-02-04 11:33:00,45.9,44.5,30.17,SW,236,3.5,3.5,95,0.00,CLR,,0.00,WeatherDisplay:10.37,2013-02-04 19:33:00,
2013-02-04 11:38:00,46.2,44.8,30.18,SE,136,2.3,2.3,95,0.00,CLR,,0.00,WeatherDisplay:10.37,2013-02-04 19:38:00,
2013-02-04 11:43:00,46.3,44.9,30.17,SSE,148,3.5,3.5,95,0.00,CLR,,0.00,WeatherDisplay:10.37,2013-02-04 19:43:00,
2013-02-04 11:48:00,46.5,45.1,30.17,SE,142,2.3,2.3,95,0.00,CLR,,0.00,WeatherDisplay:10.37,2013-02-04 19:48:00,
2013-02-04 11:53:00,46.6,45.2,30.17,ESE,110,3.5,3.5,95,0.00,CLR,,0.00,WeatherDisplay:10.37,2013-02-04 19:53:00,
2013-02-04 11:58:00,46.6,45.2,30.17,SE,128,2.3,2.3,95,0.00,CLR,,0.00,WeatherDisplay:10.37,2013-02-04 19:58:00,
2013-02-04 12:03:00,46.7,45.3,30.17,SE,132,2.3,2.3,95,0.00,CLR,,0.00,WeatherDisplay:10.37,2013-02-04 20:03:00,
2013-02-04 12:08:00,46.9,45.5,30.16,SE,124,3.0,3.0,95,0.00,CLR,,0.00,WeatherDisplay:10.37,2013-02-04 20:08:00,
2013-02-04 12:13:00,47.0,45.6,30.16,SE,134,4.0,4.0,95,0.00,CLR,,0.00,WeatherDisplay:10.37,2013-02-04 20:13:00,
2013-02-04 12:18:00,47.3,45.9,30.16,SE,124,3.5,3.5,95,0.00,CLR,,0.00,WeatherDisplay:10.37,2013-02-04 20:18:00,
2013-02-04 12:23:00,47.4,46.0,30.16,SE,141,3.5,3.5,95,0.00,CLR,,0.00,WeatherDisplay:10.37,2013-02-04 20:23:00,
2013-02-04 12:28:00,47.5,45.9,30.15,SE,124,3.5,3.5,94,0.00,CLR,,0.00,WeatherDisplay:10.37,2013-02-04 20:28:00,
2013-02-04 12:33:00,47.7,46.1,30.15,SE,134,5.8,5.8,94,0.00,CLR,,0.00,WeatherDisplay:10.37,2013-02-04 20:33:00,
2013-02-04 12:38:00,47.9,46.3,30.15,South,173,3.5,3.5,94,0.00,CLR,,0.00,WeatherDisplay:10.37,2013-02-04 20:38:00,
2013-02-04 12:43:00,48.4,46.8,30.15,SW,222,3.5,3.5,94,0.00,CLR,,0.00,WeatherDisplay:10.37,2013-02-04 20:43:00,
2013-02-04 12:48:00,48.7,46.8,30.15,South,173,8.1,8.1,93,0.00,CLR,,0.00,WeatherDisplay:10.37,2013-02-04 20:48:00,
2013-02-04 12:53:00,48.7,46.8,30.15,ESE,117,2.3,2.3,93,0.00,CLR,,0.00,WeatherDisplay:10.37,2013-02-04 20:53:00,
2013-02-04 12:58:00,48.9,47.0,30.14,SE,124,4.6,4.6,93,0.00,CLR,,0.00,WeatherDisplay:10.37,2013-02-04 20:58:00,
2013-02-04 13:03:00,49.0,46.8,30.14,SE,127,2.3,2.3,92,0.00,CLR,,0.00,WeatherDisplay:10.37,2013-02-04 21:03:00,
2013-02-04 13:08:00,48.9,46.4,30.14,SSE,152,5.8,5.8,91,0.00,CLR,,0.00,WeatherDisplay:10.37,2013-02-04 21:08:00,
2013-02-04 13:13:00,48.8,46.3,30.14,SSE,152,3.5,3.5,91,0.00,CLR,,0.00,WeatherDisplay:10.37,2013-02-04 21:13:00,
2013-02-04 13:18:00,49.0,46.5,30.14,SSE,149,4.6,4.6,91,0.00,CLR,,0.00,WeatherDisplay:10.37,2013-02-04 21:18:00,
2013-02-04 13:23:00,49.1,46.6,30.13,SE,128,3.5,3.5,91,0.00,CLR,,0.00,WeatherDisplay:10.37,2013-02-04 21:23:00,
2013-02-04 13:28:00,49.4,46.9,30.13,SSE,156,4.6,4.6,91,0.00,CLR,,0.00,WeatherDisplay:10.37,2013-02-04 21:28:00,
2013-02-04 13:33:00,49.5,47.0,30.13,SSE,148,3.5,3.5,91,0.00,CLR,,0.00,WeatherDisplay:10.37,2013-02-04 21:33:00,
2013-02-04 13:38:00,49.7,47.2,30.13,SSE,150,3.5,3.5,91,0.00,CLR,,0.00,WeatherDisplay:10.37,2013-02-04 21:38:00,
2013-02-04 13:43:00,50.1,47.6,30.12,South,186,2.3,2.3,91,0.00,CLR,,0.00,WeatherDisplay:10.37,2013-02-04 21:43:00,
2013-02-04 13:48:00,50.5,47.4,30.12,SSW,201,3.5,3.5,89,0.00,CLR,,0.00,WeatherDisplay:10.37,2013-02-04 21:48:00,
2013-02-04 13:54:00,50.9,47.5,30.12,SE,128,4.6,4.6,88,0.00,CLR,,0.00,WeatherDisplay:10.37,2013-02-04 21:54:00,
2013-02-04 13:59:00,50.5,47.4,30.12,SE,128,3.5,3.5,89,0.00,CLR,,0.00,WeatherDisplay:10.37,2013-02-04 21:59:00,
2013-02-04 14:04:00,50.4,47.3,30.11,SSE,156,3.5,3.5,89,0.00,CLR,,0.00,WeatherDisplay:10.37,2013-02-04 22:04:00,
2013-02-04 14:09:00,50.4,47.3,30.11,ESE,122,3.5,3.5,89,0.00,CLR,,0.00,WeatherDisplay:10.37,2013-02-04 22:09:00,
2013-02-04 14:14:00,50.8,47.4,30.11,SSE,167,9.2,9.2,88,0.00,CLR,,0.00,WeatherDisplay:10.37,2013-02-04 22:14:00,
2013-02-04 14:20:00,51.3,47.9,30.10,SE,124,2.3,2.3,88,0.00,CLR,,0.00,WeatherDisplay:10.37,2013-02-04 22:20:00,
2013-02-04 14:25:00,51.6,47.9,30.10,South,176,5.8,5.8,87,0.00,CLR,,0.00,WeatherDisplay:10.37,2013-02-04 22:25:00,
2013-02-04 14:30:00,51.6,47.9,30.10,East,83,4.0,4.0,87,0.00,CLR,,0.00,WeatherDisplay:10.37,2013-02-04 22:30:00,
2013-02-04 14:35:00,51.4,47.7,30.10,SE,139,3.5,3.5,87,0.00,CLR,,0.00,WeatherDisplay:10.37,2013-02-04 22:35:00,
2013-02-04 14:40:00,51.4,47.7,30.10,SE,139,3.5,3.5,87,0.00,CLR,,0.00,WeatherDisplay:10.37,2013-02-04 22:40:00,
2013-02-04 14:45:00,51.6,47.9,30.10,ESE,118,4.6,4.6,87,0.00,CLR,,0.00,WeatherDisplay:10.37,2013-02-04 22:45:00,
2013-02-04 14:50:00,51.9,48.2,30.10,SE,124,3.5,3.5,87,0.00,CLR,,0.00,WeatherDisplay:10.37,2013-02-04 22:50:00,
2013-02-04 14:55:00,52.4,48.3,30.10,SE,143,3.5,3.5,86,0.00,CLR,,0.00,WeatherDisplay:10.37,2013-02-04 22:55:00,
2013-02-04 15:01:00,52.8,48.4,30.10,SE,134,3.5,3.5,85,0.00,CLR,,0.00,WeatherDisplay:10.37,2013-02-04 23:01:00,
2013-02-04 15:06:00,52.9,48.5,30.10,SE,139,5.8,5.8,85,0.00,CLR,,0.00,WeatherDisplay:10.37,2013-02-04 23:06:00,
2013-02-04 15:11:00,53.1,48.7,30.10,South,179,4.0,4.0,85,0.00,CLR,,0.00,WeatherDisplay:10.37,2013-02-04 23:11:00,
2013-02-04 15:16:00,53.2,48.5,30.10,SSE,163,5.8,5.8,84,0.00,CLR,,0.00,WeatherDisplay:10.37,2013-02-04 23:16:00,
2013-02-04 15:21:00,53.5,49.1,30.10,SSE,152,2.0,2.0,85,0.00,CLR,,0.00,WeatherDisplay:10.37,2013-02-04 23:21:00,
2013-02-04 15:26:00,54.0,49.3,30.10,SE,146,3.5,3.5,84,0.00,CLR,,0.00,WeatherDisplay:10.37,2013-02-04 23:26:00,
2013-02-04 15:31:00,53.8,48.8,30.10,SSE,153,3.5,3.5,83,0.00,CLR,,0.00,WeatherDisplay:10.37,2013-02-04 23:31:00,
2013-02-04 15:36:00,53.6,48.9,30.10,SE,142,2.3,2.3,84,0.00,CLR,,0.00,WeatherDisplay:10.37,2013-02-04 23:36:00,
2013-02-04 15:41:00,53.6,48.9,30.10,SSW,196,3.5,3.5,84,0.00,CLR,,0.00,WeatherDisplay:10.37,2013-02-04 23:41:00,
2013-02-04 15:46:00,53.8,49.1,30.09,SW,224,3.0,3.0,84,0.00,CLR,,0.00,WeatherDisplay:10.37,2013-02-04 23:46:00,
2013-02-04 15:52:00,54.3,49.2,30.10,SSW,207,2.3,2.3,83,0.00,CLR,,0.00,WeatherDisplay:10.37,2013-02-04 23:52:00,
2013-02-04 15:57:00,54.4,49.0,30.10,South,183,3.5,3.5,82,0.00,CLR,,0.00,WeatherDisplay:10.37,2013-02-04 23:57:00,
2013-02-04 16:02:00,54.5,49.1,30.10,SW,225,1.1,1.1,82,0.00,CLR,,0.00,WeatherDisplay:10.37,2013-02-05 00:02:00,
2013-02-04 16:07:00,54.5,49.1,30.10,SSW,199,1.1,1.1,82,0.00,CLR,,0.00,WeatherDisplay:10.37,2013-02-05 00:07:00,
2013-02-04 16:12:00,54.5,49.1,30.09,SSW,211,1.1,1.1,82,0.00,CLR,,0.00,WeatherDisplay:10.37,2013-02-05 00:12:00,
2013-02-04 16:17:00,54.8,49.4,30.09,SSW,197,2.3,2.3,82,0.00,CLR,,0.00,WeatherDisplay:10.37,2013-02-05 00:17:00,
2013-02-04 16:22:00,55.1,49.4,30.09,SSE,166,2.0,2.0,81,0.00,CLR,,0.00,WeatherDisplay:10.37,2013-02-05 00:22:00,
2013-02-04 16:28:00,55.5,49.8,30.09,SSW,201,1.1,1.1,81,0.00,CLR,,0.00,WeatherDisplay:10.37,2013-02-05 00:28:00,
2013-02-04 16:33:00,55.5,49.4,30.09,SSW,207,1.1,1.1,80,0.00,CLR,,0.00,WeatherDisplay:10.37,2013-02-05 00:33:00,
2013-02-04 16:38:00,55.4,49.3,30.09,South,176,2.3,2.3,80,0.00,CLR,,0.00,WeatherDisplay:10.37,2013-02-05 00:38:00,
2013-02-04 16:43:00,55.1,49.4,30.09,SSW,208,1.1,1.1,81,0.00,CLR,,0.00,WeatherDisplay:10.37,2013-02-05 00:43:00,
2013-02-04 16:48:00,54.9,49.2,30.09,South,183,1.1,1.1,81,0.00,CLR,,0.00,WeatherDisplay:10.37,2013-02-05 00:48:00,
2013-02-04 16:53:00,54.7,49.3,30.09,SSW,194,1.1,1.1,82,0.00,CLR,,0.00,WeatherDisplay:10.37,2013-02-05 00:53:00,
2013-02-04 16:58:00,54.6,49.2,30.09,SSW,194,0.0,0.0,82,0.00,CLR,,0.00,WeatherDisplay:10.37,2013-02-05 00:58:00,
2013-02-04 17:03:00,54.4,49.0,30.09,SSW,195,0.0,0.0,82,0.00,CLR,,0.00,WeatherDisplay:10.37,2013-02-05 01:03:00,
2013-02-04 17:09:00,54.0,49.0,30.09,SSW,195,0.0,0.0,83,0.00,CLR,,0.00,WeatherDisplay:10.37,2013-02-05 01:09:00,
2013-02-04 17:14:00,53.6,48.6,30.08,SSW,194,0.0,0.0,83,0.00,CLR,,0.00,WeatherDisplay:10.37,2013-02-05 01:14:00,
2013-02-04 17:19:00,53.2,48.5,30.08,SSW,194,0.0,0.0,84,0.00,CLR,,0.00,WeatherDisplay:10.37,2013-02-05 01:19:00,
2013-02-04 17:24:00,52.8,48.4,30.08,SSW,194,0.0,0.0,85,0.00,CLR,,0.00,WeatherDisplay:10.37,2013-02-05 01:24:00,
2013-02-04 17:29:00,52.4,48.3,30.08,SSW,194,0.0,0.0,86,0.00,CLR,,0.00,WeatherDisplay:10.37,2013-02-05 01:29:00,
2013-02-04 17:34:00,52.1,48.0,30.08,SSW,195,1.1,1.1,86,0.00,CLR,,0.00,WeatherDisplay:10.37,2013-02-05 01:34:00,
2013-02-04 17:39:00,51.8,48.1,30.08,SSW,193,1.1,1.1,87,0.00,CLR,,0.00,WeatherDisplay:10.37,2013-02-05 01:39:00,
2013-02-04 17:44:00,51.4,47.7,30.08,SSW,194,0.0,0.0,87,0.00,CLR,,0.00,WeatherDisplay:10.37,2013-02-05 01:44:00,
2013-02-04 17:49:00,51.2,47.8,30.08,SSW,194,0.0,0.0,88,0.00,CLR,,0.00,WeatherDisplay:10.37,2013-02-05 01:49:00,
2013-02-04 17:54:00,50.8,47.4,30.08,SSW,195,0.0,0.0,88,0.00,CLR,,0.00,WeatherDisplay:10.37,2013-02-05 01:54:00,
2013-02-04 17:59:00,50.4,47.3,30.08,SW,236,1.1,1.1,89,0.00,CLR,,0.00,WeatherDisplay:10.37,2013-02-05 01:59:00,
2013-02-04 18:04:00,50.1,47.0,30.08,WSW,249,1.1,0.0,89,0.00,CLR,,0.00,WeatherDisplay:10.37,2013-02-05 02:04:00,
2013-02-04 18:09:00,49.8,46.7,30.08,WSW,249,0.0,0.0,89,0.00,CLR,,0.00,WeatherDisplay:10.37,2013-02-05 02:09:00,
2013-02-04 18:14:00,49.3,46.2,30.08,WSW,248,0.0,0.0,89,0.00,CLR,,0.00,WeatherDisplay:10.37,2013-02-05 02:14:00,
2013-02-04 18:19:00,48.5,45.4,30.08,WSW,249,1.1,1.1,89,0.00,CLR,,0.00,WeatherDisplay:10.37,2013-02-05 02:19:00,
2013-02-04 18:24:00,47.7,45.2,30.08,WNW,284,1.1,0.0,91,0.00,CLR,,0.00,WeatherDisplay:10.37,2013-02-05 02:24:00,
2013-02-04 18:29:00,47.8,45.6,30.08,WNW,284,0.0,0.0,92,0.00,CLR,,0.00,WeatherDisplay:10.37,2013-02-05 02:29:00,
2013-02-04 18:34:00,47.7,45.5,30.08,WNW,284,0.0,0.0,92,0.00,CLR,,0.00,WeatherDisplay:10.37,2013-02-05 02:34:00,
2013-02-04 18:40:00,47.4,45.2,30.08,WNW,283,0.0,0.0,92,0.00,CLR,,0.00,WeatherDisplay:10.37,2013-02-05 02:40:00,
2013-02-04 18:45:00,47.4,45.2,30.09,WNW,283,0.0,0.0,92,0.00,CLR,,0.00,WeatherDisplay:10.37,2013-02-05 02:45:00,
2013-02-04 18:50:00,47.2,45.0,30.09,NNW,330,0.0,0.0,92,0.00,CLR,,0.00,WeatherDisplay:10.37,2013-02-05 02:50:00,
2013-02-04 18:55:00,46.8,44.6,30.09,NNW,330,0.0,0.0,92,0.00,CLR,,0.00,WeatherDisplay:10.37,2013-02-05 02:55:00,
2013-02-04 19:01:00,46.3,44.1,30.09,NNW,330,0.0,0.0,92,0.00,CLR,,0.00,WeatherDisplay:10.37,2013-02-05 03:01:00,
2013-02-04 19:06:00,46.0,43.8,30.09,NNW,330,0.0,0.0,92,0.00,CLR,,0.00,WeatherDisplay:10.37,2013-02-05 03:06:00,
2013-02-04 19:11:00,45.7,43.8,30.09,NNW,330,0.0,0.0,93,0.00,CLR,,0.00,WeatherDisplay:10.37,2013-02-05 03:11:00,
2013-02-04 19:16:00,45.7,43.8,30.08,NNW,330,0.0,0.0,93,0.00,CLR,,0.00,WeatherDisplay:10.37,2013-02-05 03:16:00,
2013-02-04 19:21:00,46.0,44.1,30.09,NNW,330,0.0,0.0,93,0.00,CLR,,0.00,WeatherDisplay:10.37,2013-02-05 03:21:00,
2013-02-04 19:26:00,46.1,44.2,30.08,NNW,328,0.0,0.0,93,0.00,CLR,,0.00,WeatherDisplay:10.37,2013-02-05 03:26:00,
2013-02-04 19:31:00,45.9,44.0,30.09,NNW,329,0.0,0.0,93,0.00,CLR,,0.00,WeatherDisplay:10.37,2013-02-05 03:31:00,
2013-02-04 19:37:00,45.2,43.3,30.09,NNW,329,0.0,0.0,93,0.00,CLR,,0.00,WeatherDisplay:10.37,2013-02-05 03:37:00,
2013-02-04 19:42:00,44.5,42.3,30.09,NNE,32,0.0,0.0,92,0.00,CLR,,0.00,WeatherDisplay:10.37,2013-02-05 03:42:00,
2013-02-04 19:47:00,44.5,42.6,30.09,NE,36,0.0,0.0,93,0.00,CLR,,0.00,WeatherDisplay:10.37,2013-02-05 03:47:00,
2013-02-04 19:52:00,44.6,43.0,30.09,NE,36,0.0,0.0,94,0.00,CLR,,0.00,WeatherDisplay:10.37,2013-02-05 03:52:00,
2013-02-04 19:57:00,44.7,43.1,30.09,NE,36,0.0,0.0,94,0.00,CLR,,0.00,WeatherDisplay:10.37,2013-02-05 03:57:00,
2013-02-04 20:03:00,44.5,42.9,30.09,NE,36,0.0,0.0,94,0.00,CLR,,0.00,WeatherDisplay:10.37,2013-02-05 04:03:00,
2013-02-04 20:08:00,44.8,43.2,30.09,NE,37,0.0,0.0,94,0.00,CLR,,0.00,WeatherDisplay:10.37,2013-02-05 04:08:00,
2013-02-04 20:13:00,44.4,42.8,30.09,NE,37,0.0,0.0,94,0.00,CLR,,0.00,WeatherDisplay:10.37,2013-02-05 04:13:00,
2013-02-04 20:19:00,44.3,42.7,30.09,NE,37,0.0,0.0,94,0.00,CLR,,0.00,WeatherDisplay:10.37,2013-02-05 04:19:00,
2013-02-04 20:24:00,44.3,42.7,30.09,NE,37,0.0,0.0,94,0.00,CLR,,0.00,WeatherDisplay:10.37,2013-02-05 04:24:00,
2013-02-04 20:29:00,44.7,43.1,30.09,SE,136,0.0,0.0,94,0.00,CLR,,0.00,WeatherDisplay:10.37,2013-02-05 04:29:00,
2013-02-04 20:34:00,44.4,42.8,30.09,South,170,0.0,0.0,94,0.00,CLR,,0.00,WeatherDisplay:10.37,2013-02-05 04:34:00,
2013-02-04 20:39:00,43.8,42.2,30.09,SSW,211,0.0,0.0,94,0.00,CLR,,0.00,WeatherDisplay:10.37,2013-02-05 04:39:00,
2013-02-04 20:44:00,43.6,42.0,30.09,SW,233,0.0,0.0,94,0.00,CLR,,0.00,WeatherDisplay:10.37,2013-02-05 04:44:00,
2013-02-04 20:50:00,43.7,42.1,30.09,SW,233,0.0,0.0,94,0.00,CLR,,0.00,WeatherDisplay:10.37,2013-02-05 04:50:00,
2013-02-04 20:55:00,43.7,42.1,30.09,SW,233,0.0,0.0,94,0.00,CLR,,0.00,WeatherDisplay:10.37,2013-02-05 04:55:00,
2013-02-04 21:00:00,43.5,41.9,30.09,SW,233,0.0,0.0,94,0.00,CLR,,0.00,WeatherDisplay:10.37,2013-02-05 05:00:00,
2013-02-04 21:01:00,43.4,41.8,30.09,SW,233,0.0,0.0,94,0.00,CLR,,0.00,WeatherDisplay:10.37,2013-02-05 05:01:00,
2013-02-04 21:04:00,42.5,40.6,30.09,SW,233,0.0,0.0,93,0.00,CLR,,0.00,WeatherDisplay:10.37,2013-02-05 05:04:00,
2013-02-04 21:09:00,41.6,39.7,30.10,SW,233,0.0,0.0,93,0.00,CLR,,0.00,WeatherDisplay:10.37,2013-02-05 05:09:00,
2013-02-04 21:14:00,41.4,39.8,30.10,SW,233,0.0,0.0,94,0.00,CLR,,0.00,WeatherDisplay:10.37,2013-02-05 05:14:00,
2013-02-04 21:20:00,41.4,39.8,30.10,SW,233,0.0,0.0,94,0.00,CLR,,0.00,WeatherDisplay:10.37,2013-02-05 05:20:00,
2013-02-04 21:25:00,41.1,39.5,30.10,SW,233,0.0,0.0,94,0.00,CLR,,0.00,WeatherDisplay:10.37,2013-02-05 05:25:00,
2013-02-04 21:30:00,41.2,39.6,30.10,SW,233,0.0,0.0,94,0.00,CLR,,0.00,WeatherDisplay:10.37,2013-02-05 05:30:00,
2013-02-04 21:35:00,41.3,40.0,30.10,SW,233,0.0,0.0,95,0.00,CLR,,0.00,WeatherDisplay:10.37,2013-02-05 05:35:00,
2013-02-04 21:40:00,41.5,40.2,30.10,SW,233,0.0,0.0,95,0.00,CLR,,0.00,WeatherDisplay:10.37,2013-02-05 05:40:00,
2013-02-04 21:45:00,41.6,40.3,30.10,SSW,197,0.0,0.0,95,0.00,CLR,,0.00,WeatherDisplay:10.37,2013-02-05 05:45:00,
2013-02-04 21:51:00,41.7,40.4,30.10,SW,236,1.1,1.1,95,0.00,CLR,,0.00,WeatherDisplay:10.37,2013-02-05 05:51:00,
2013-02-04 21:56:00,42.0,40.7,30.10,WSW,248,2.3,2.3,95,0.00,CLR,,0.00,WeatherDisplay:10.37,2013-02-05 05:56:00,
2013-02-04 22:01:00,42.4,41.1,30.10,South,185,1.1,1.1,95,0.00,CLR,,0.00,WeatherDisplay:10.37,2013-02-05 06:01:00,
2013-02-04 22:06:00,43.0,41.7,30.10,South,174,3.5,3.5,95,0.00,CLR,,0.00,WeatherDisplay:10.37,2013-02-05 06:06:00,
2013-02-04 22:11:00,43.3,42.0,30.11,SSW,198,1.1,1.1,95,0.00,CLR,,0.00,WeatherDisplay:10.37,2013-02-05 06:11:00,
2013-02-04 22:16:00,43.5,42.2,30.11,SSW,203,0.0,0.0,95,0.00,CLR,,0.00,WeatherDisplay:10.37,2013-02-05 06:16:00,
2013-02-04 22:22:00,43.3,42.0,30.11,East,85,0.0,0.0,95,0.00,CLR,,0.00,WeatherDisplay:10.37,2013-02-05 06:22:00,
2013-02-04 22:27:00,43.2,41.9,30.10,East,84,0.0,0.0,95,0.00,CLR,,0.00,WeatherDisplay:10.37,2013-02-05 06:27:00,
2013-02-04 22:32:00,43.3,42.0,30.11,East,84,0.0,0.0,95,0.00,CLR,,0.00,WeatherDisplay:10.37,2013-02-05 06:32:00,
2013-02-04 22:37:00,43.4,42.1,30.11,ENE,78,0.0,0.0,95,0.00,CLR,,0.00,WeatherDisplay:10.37,2013-02-05 06:37:00,
2013-02-04 22:42:00,43.6,42.3,30.11,ENE,77,0.0,0.0,95,0.00,CLR,,0.00,WeatherDisplay:10.37,2013-02-05 06:42:00,
2013-02-04 22:48:00,43.8,42.5,30.11,ENE,78,0.0,0.0,95,0.00,CLR,,0.00,WeatherDisplay:10.37,2013-02-05 06:48:00,
2013-02-04 22:53:00,44.0,42.7,30.11,ENE,78,0.0,0.0,95,0.00,CLR,,0.00,WeatherDisplay:10.37,2013-02-05 06:53:00,
2013-02-04 22:58:00,43.9,42.6,30.11,ENE,78,0.0,0.0,95,0.00,CLR,,0.00,WeatherDisplay:10.37,2013-02-05 06:58:00,
2013-02-04 23:03:00,43.9,42.6,30.11,ENE,58,0.0,0.0,95,0.00,CLR,,0.00,WeatherDisplay:10.37,2013-02-05 07:03:00,
2013-02-04 23:08:00,43.8,42.5,30.11,NE,53,0.0,0.0,95,0.00,CLR,,0.00,WeatherDisplay:10.37,2013-02-05 07:08:00,
2013-02-04 23:13:00,43.7,42.4,30.11,NE,52,0.0,0.0,95,0.00,CLR,,0.00,WeatherDisplay:10.37,2013-02-05 07:13:00,
2013-02-04 23:18:00,43.7,42.4,30.11,NE,53,0.0,0.0,95,0.00,CLR,,0.00,WeatherDisplay:10.37,2013-02-05 07:18:00,
2013-02-04 23:23:00,43.7,42.4,30.11,NE,52,0.0,0.0,95,0.00,CLR,,0.00,WeatherDisplay:10.37,2013-02-05 07:23:00,
2013-02-04 23:28:00,43.9,42.6,30.11,NE,52,0.0,0.0,95,0.00,CLR,,0.00,WeatherDisplay:10.37,2013-02-05 07:28:00,
2013-02-04 23:33:00,44.0,42.7,30.11,NE,53,0.0,0.0,95,0.00,CLR,,0.00,WeatherDisplay:10.37,2013-02-05 07:33:00,
2013-02-04 23:38:00,44.2,42.9,30.11,NE,52,0.0,0.0,95,0.00,CLR,,0.00,WeatherDisplay:10.37,2013-02-05 07:38:00,
2013-02-04 23:43:00,44.4,43.1,30.11,SSE,158,0.0,0.0,95,0.00,CLR,,0.00,WeatherDisplay:10.37,2013-02-05 07:43:00,
2013-02-04 23:48:00,44.6,43.3,30.11,SSE,159,0.0,0.0,95,0.00,CLR,,0.00,WeatherDisplay:10.37,2013-02-05 07:48:00,
2013-02-04 23:53:00,44.7,43.4,30.11,South,174,0.0,0.0,95,0.01,RA,,0.01,WeatherDisplay:10.37,2013-02-05 07:53:00,
2013-02-04 23:58:00,44.8,43.5,30.10,South,169,0.0,0.0,95,0.01,RA,,0.01,WeatherDisplay:10.37,2013-02-05 07:58:00,